createdAt,value
2018-05-23T00:00:15.552Z,26.07
2018-05-23T00:02:43.285Z,25.00
2018-05-23T00:05:11.022Z,25.80
2018-05-23T00:07:38.808Z,26.90
2018-05-23T00:10:06.577Z,25.43
2018-05-23T00:12:34.313Z,26.87
2018-05-23T00:15:02.105Z,25.90
2018-05-23T00:17:29.869Z,26.70
2018-05-23T00:19:57.634Z,27.87
2018-05-23T00:22:25.372Z,27.90
2018-05-23T00:24:53.113Z,25.97
2018-05-23T00:27:21.608Z,25.70
2018-05-23T00:29:49.355Z,28.07
2018-05-23T00:32:17.932Z,26.67
2018-05-23T00:34:46.440Z,26.93
2018-05-23T00:37:14.180Z,28.17
2018-05-23T00:39:42.686Z,26.80
2018-05-23T00:42:10.427Z,27.20
2018-05-23T00:44:38.967Z,26.47
2018-05-23T00:47:06.700Z,28.17
2018-05-23T00:49:34.436Z,26.70
2018-05-23T00:52:02.941Z,24.87
2018-05-23T00:54:30.704Z,24.53
2018-05-23T00:56:58.565Z,25.20
2018-05-23T00:59:26.288Z,24.40
2018-05-23T01:01:54.044Z,26.17
2018-05-23T01:04:21.839Z,24.30
2018-05-23T01:06:50.348Z,25.30
2018-05-23T01:09:18.147Z,24.93
2018-05-23T01:11:45.894Z,25.90
2018-05-23T01:14:14.400Z,26.80
2018-05-23T01:16:42.130Z,26.03
2018-05-23T01:19:09.877Z,25.80
2018-05-23T01:21:37.676Z,30.37
2018-05-23T01:24:05.425Z,26.60
2018-05-23T01:26:33.163Z,26.80
2018-05-23T01:29:01.661Z,28.17
2018-05-23T01:31:29.412Z,26.90
2018-05-23T01:33:57.150Z,27.07
2018-05-23T01:36:24.901Z,28.37
2018-05-23T01:38:52.633Z,26.97
2018-05-23T01:41:21.176Z,26.03
2018-05-23T01:43:49.726Z,25.50
2018-05-23T01:46:17.510Z,24.70
2018-05-23T01:48:57.740Z,23.53
2018-05-23T01:51:25.472Z,23.20
2018-05-23T01:53:53.212Z,22.33
2018-05-23T01:56:20.941Z,20.90
2018-05-23T01:58:48.680Z,20.87
2018-05-23T02:01:16.457Z,21.30
2018-05-23T02:03:44.193Z,19.60
2018-05-23T02:06:11.956Z,20.97
2018-05-23T02:08:39.684Z,20.57
2018-05-23T02:11:08.232Z,20.90
2018-05-23T02:13:35.960Z,19.00
2018-05-23T02:16:03.706Z,18.40
2018-05-23T02:18:31.444Z,17.33
2018-05-23T02:20:59.945Z,18.00
2018-05-23T02:23:27.737Z,16.63
2018-05-23T02:25:55.469Z,16.67
2018-05-23T02:28:23.973Z,15.63
2018-05-23T02:30:51.703Z,15.23
2018-05-23T02:33:19.515Z,14.67
2018-05-23T02:35:47.283Z,14.17
2018-05-23T02:38:15.901Z,14.20
2018-05-23T02:40:43.624Z,14.40
2018-05-23T02:43:11.351Z,13.90
2018-05-23T02:45:39.852Z,13.90
2018-05-23T02:48:07.591Z,14.50
2018-05-23T02:50:36.112Z,16.13
2018-05-23T02:53:03.877Z,15.50
2018-05-23T02:55:31.617Z,14.10
2018-05-23T02:57:59.428Z,14.43
2018-05-23T03:00:27.196Z,13.70
2018-05-23T03:02:54.992Z,13.83
2018-05-23T03:05:23.512Z,13.40
2018-05-23T03:07:51.286Z,13.60
2018-05-23T03:10:19.059Z,12.70
2018-05-23T03:12:46.815Z,12.67
2018-05-23T03:15:14.577Z,11.40
2018-05-23T03:17:42.309Z,13.70
2018-05-23T03:20:10.070Z,12.30
2018-05-23T03:22:37.808Z,13.90
2018-05-23T03:25:06.337Z,11.90
2018-05-23T03:27:34.852Z,12.27
2018-05-23T03:30:02.639Z,11.63
2018-05-23T03:32:31.149Z,12.50
2018-05-23T03:34:58.898Z,11.67
2018-05-23T03:37:27.417Z,11.47
2018-05-23T03:39:55.151Z,10.53
2018-05-23T03:42:22.896Z,10.27
2018-05-23T03:44:51.406Z,11.37
2018-05-23T03:47:19.176Z,12.37
2018-05-23T03:49:46.911Z,11.30
2018-05-23T03:52:14.670Z,11.53
2018-05-23T03:54:43.176Z,11.07
2018-05-23T03:57:10.910Z,10.83
2018-05-23T03:59:51.726Z,11.00
2018-05-23T04:02:31.293Z,10.77
2018-05-23T04:05:10.873Z,9.87
2018-05-23T04:07:39.684Z,10.20
2018-05-23T04:10:07.437Z,8.50
2018-05-23T04:12:35.177Z,9.20
2018-05-23T04:15:03.801Z,8.00
2018-05-23T04:17:31.518Z,8.40
2018-05-23T04:19:59.286Z,10.40
2018-05-23T04:22:27.804Z,10.47
2018-05-23T04:24:55.611Z,11.93
2018-05-23T04:27:23.336Z,10.17
2018-05-23T04:29:51.073Z,9.80
2018-05-23T04:32:19.573Z,9.70
2018-05-23T04:34:47.325Z,9.83
2018-05-23T04:37:15.056Z,10.03
2018-05-23T04:39:42.789Z,10.07
2018-05-23T04:42:10.520Z,9.17
2018-05-23T04:44:38.295Z,9.20
2018-05-23T04:47:06.047Z,9.30
2018-05-23T04:49:33.790Z,7.70
2018-05-23T04:55:32.612Z,7.70
2018-05-23T04:58:00.328Z,8.03
2018-05-23T05:00:28.861Z,8.20
2018-05-23T05:02:56.596Z,7.53
2018-05-23T05:05:24.325Z,8.07
2018-05-23T05:07:52.051Z,7.47
2018-05-23T05:10:19.836Z,7.33
2018-05-23T05:12:47.600Z,6.77
2018-05-23T05:15:16.097Z,7.30
2018-05-23T05:17:44.584Z,6.73
2018-05-23T05:20:13.079Z,6.97
2018-05-23T05:22:40.814Z,7.77
2018-05-23T05:25:09.335Z,7.50
2018-05-23T05:27:37.136Z,8.30
2018-05-23T05:30:05.001Z,7.87
2018-05-23T05:32:32.724Z,7.17
2018-05-23T05:35:00.479Z,6.63
2018-05-23T05:37:28.265Z,5.80
2018-05-23T05:39:55.999Z,5.60
2018-05-23T05:42:24.509Z,6.50
2018-05-23T05:44:52.277Z,6.60
2018-05-23T05:47:20.001Z,6.80
2018-05-23T05:49:48.566Z,5.93
2018-05-23T05:52:16.280Z,6.20
2018-05-23T05:54:44.000Z,5.00
2018-05-23T05:57:12.506Z,5.20
2018-05-23T05:59:40.241Z,5.67
2018-05-23T06:02:08.054Z,4.50
2018-05-23T06:04:36.549Z,5.40
2018-05-23T06:07:04.266Z,4.73
2018-05-23T06:09:32.849Z,5.60
2018-05-23T06:12:00.504Z,5.40
2018-05-23T06:14:29.003Z,5.40
2018-05-23T06:16:56.810Z,6.20
2018-05-23T06:19:24.549Z,6.10
2018-05-23T06:21:52.280Z,5.30
2018-05-23T06:24:20.774Z,5.30
2018-05-23T06:26:48.532Z,4.80
2018-05-23T06:29:16.274Z,4.93
2018-05-23T06:31:43.996Z,5.33
2018-05-23T06:34:11.732Z,5.73
2018-05-23T06:36:39.477Z,5.67
2018-05-23T06:39:07.964Z,5.23
2018-05-23T06:41:36.601Z,4.57
2018-05-23T06:44:04.324Z,3.80
2018-05-23T06:46:32.069Z,4.67
2018-05-23T06:48:59.837Z,4.50
2018-05-23T06:51:28.332Z,4.20
2018-05-23T06:53:56.097Z,5.00
2018-05-23T06:56:23.812Z,4.40
2018-05-23T06:58:51.520Z,4.47
2018-05-23T07:01:19.269Z,3.43
2018-05-23T07:03:47.767Z,3.80
2018-05-23T07:06:15.471Z,3.90
2018-05-23T07:08:43.204Z,3.30
2018-05-23T07:11:10.931Z,3.50
2018-05-23T07:13:38.685Z,3.97
2018-05-23T07:16:06.464Z,3.60
2018-05-23T07:18:34.980Z,4.23
2018-05-23T07:21:02.683Z,3.53
2018-05-23T07:23:30.464Z,3.60
2018-05-23T07:25:58.309Z,3.97
2018-05-23T07:28:26.733Z,3.77
2018-05-23T07:30:55.240Z,4.90
2018-05-23T07:33:22.946Z,4.33
2018-05-23T07:35:50.676Z,4.40
2018-05-23T07:38:18.447Z,4.40
2018-05-23T07:40:46.203Z,4.47
2018-05-23T07:43:13.911Z,5.20
2018-05-23T07:45:42.412Z,3.60
2018-05-23T07:48:10.134Z,4.10
2018-05-23T07:50:37.838Z,4.63
2018-05-23T07:53:05.572Z,3.63
2018-05-23T07:55:33.275Z,4.40
2018-05-23T07:58:01.005Z,4.67
2018-05-23T08:00:29.520Z,3.90
2018-05-23T08:02:57.240Z,4.57
2018-05-23T08:05:24.985Z,4.43
2018-05-23T08:07:52.703Z,4.00
2018-05-23T08:10:20.501Z,4.10
2018-05-23T08:12:48.264Z,4.03
2018-05-23T08:15:16.010Z,4.30
2018-05-23T08:17:43.712Z,4.60
2018-05-23T08:20:11.412Z,4.50
2018-05-23T08:22:39.903Z,4.53
2018-05-23T08:25:07.612Z,3.50
2018-05-23T08:27:35.308Z,4.50
2018-05-23T08:30:03.844Z,5.33
2018-05-23T08:32:31.541Z,4.27
2018-05-23T08:34:59.288Z,5.37
2018-05-23T08:37:27.040Z,6.10
2018-05-23T08:39:55.060Z,5.30
2018-05-23T08:42:23.576Z,4.77
2018-05-23T08:44:51.314Z,4.23
2018-05-23T08:47:19.023Z,4.40
2018-05-23T08:49:46.740Z,4.63
2018-05-23T08:52:14.443Z,3.97
2018-05-23T08:54:42.144Z,4.57
2018-05-23T08:57:10.639Z,4.10
2018-05-23T08:59:38.364Z,5.13
2018-05-23T09:02:06.110Z,4.10
2018-05-23T09:04:33.846Z,3.80
2018-05-23T09:07:01.576Z,4.00
2018-05-23T09:09:30.048Z,5.13
2018-05-23T09:11:57.803Z,6.53
2018-05-23T09:14:25.527Z,4.97
2018-05-23T09:16:53.276Z,4.37
2018-05-23T09:19:21.020Z,4.33
2018-05-23T09:21:49.476Z,4.57
2018-05-23T09:24:17.194Z,4.17
2018-05-23T09:26:45.011Z,4.53
2018-05-23T09:29:13.567Z,4.20
2018-05-23T09:31:41.264Z,4.50
2018-05-23T09:34:09.767Z,3.80
2018-05-23T09:36:37.496Z,4.50
2018-05-23T09:39:06.251Z,4.50
2018-05-23T09:41:34.039Z,4.07
2018-05-23T09:44:01.974Z,5.20
2018-05-23T09:46:29.776Z,5.93
2018-05-23T09:48:58.332Z,4.63
2018-05-23T09:51:26.097Z,4.23
2018-05-23T09:53:53.893Z,3.93
2018-05-23T09:56:22.421Z,4.63
2018-05-23T09:58:50.137Z,4.27
2018-05-23T10:01:17.925Z,5.10
2018-05-23T10:03:46.487Z,5.10
2018-05-23T10:06:15.015Z,5.67
2018-05-23T10:08:42.707Z,4.80
2018-05-23T10:11:10.435Z,4.50
2018-05-23T10:13:38.272Z,4.50
2018-05-23T10:16:06.809Z,6.00
2018-05-23T10:18:34.524Z,4.67
2018-05-23T10:21:02.984Z,5.60
2018-05-23T10:23:30.778Z,5.87
2018-05-23T10:25:58.473Z,4.77
2018-05-23T10:28:26.192Z,4.67
2018-05-23T10:30:53.928Z,6.90
2018-05-23T10:33:21.662Z,5.03
2018-05-23T10:35:49.396Z,4.60
2018-05-23T10:38:17.140Z,6.07
2018-05-23T10:40:45.646Z,3.47
2018-05-23T10:43:13.344Z,5.80
2018-05-23T10:45:41.063Z,3.97
2018-05-23T10:48:08.777Z,5.83
2018-05-23T10:50:36.491Z,4.67
2018-05-23T10:53:04.238Z,5.17
2018-05-23T10:55:32.704Z,4.63
2018-05-23T10:58:01.184Z,6.57
2018-05-23T11:00:28.901Z,4.30
2018-05-23T11:02:56.657Z,4.60
2018-05-23T11:05:24.394Z,5.07
2018-05-23T11:07:52.153Z,3.60
2018-05-23T11:10:20.622Z,4.10
2018-05-23T11:12:48.345Z,3.73
2018-05-23T11:15:16.285Z,3.70
2018-05-23T11:17:43.974Z,3.03
2018-05-23T11:20:11.663Z,2.70
2018-05-23T11:22:39.668Z,3.83
2018-05-23T11:25:07.448Z,3.13
2018-05-23T11:27:35.176Z,3.30
2018-05-23T11:30:03.759Z,3.50
2018-05-23T11:35:06.228Z,3.40
2018-05-23T11:37:33.927Z,3.07
2018-05-23T11:40:02.396Z,3.20
2018-05-23T11:42:30.884Z,3.40
2018-05-23T11:44:59.360Z,3.50
2018-05-23T11:47:27.084Z,3.37
2018-05-23T11:49:54.803Z,2.80
2018-05-23T11:52:22.557Z,3.37
2018-05-23T11:54:51.047Z,2.70
2018-05-23T11:57:18.772Z,2.90
2018-05-23T11:59:46.562Z,3.90
2018-05-23T12:02:15.085Z,2.80
2018-05-23T12:04:42.790Z,2.90
2018-05-23T12:07:11.315Z,2.60
2018-05-23T12:09:39.059Z,3.30
2018-05-23T12:12:06.811Z,2.13
2018-05-23T12:14:35.313Z,2.70
2018-05-23T12:17:03.017Z,3.03
2018-05-23T12:19:30.774Z,2.60
2018-05-23T12:21:58.586Z,3.40
2018-05-23T12:24:27.149Z,2.90
2018-05-23T12:26:54.864Z,3.20
2018-05-23T12:29:22.624Z,3.00
2018-05-23T12:31:50.320Z,2.67
2018-05-23T12:34:18.031Z,3.03
2018-05-23T12:36:47.443Z,2.40
2018-05-23T12:39:15.139Z,2.70
2018-05-23T12:41:42.849Z,2.40
2018-05-23T12:44:11.332Z,2.40
2018-05-23T12:46:39.790Z,2.10
2018-05-23T12:49:07.532Z,2.10
2018-05-23T12:51:35.259Z,2.30
2018-05-23T12:54:02.969Z,1.90
2018-05-23T12:56:30.692Z,2.17
2018-05-23T12:58:58.416Z,2.37
2018-05-23T13:01:26.897Z,2.03
2018-05-23T13:03:55.364Z,2.90
2018-05-23T13:06:23.112Z,3.13
2018-05-23T13:08:50.848Z,2.50
2018-05-23T13:13:52.517Z,2.80
2018-05-23T13:16:20.244Z,2.50
2018-05-23T13:18:48.854Z,2.40
2018-05-23T13:21:16.667Z,1.87
2018-05-23T13:23:44.397Z,2.33
2018-05-23T13:26:12.238Z,2.53
2018-05-23T13:28:39.976Z,2.73
2018-05-23T13:31:07.723Z,3.07
2018-05-23T13:33:35.448Z,2.20
2018-05-23T13:36:03.233Z,2.40
2018-05-23T13:38:31.019Z,2.40
2018-05-23T13:40:58.750Z,2.60
2018-05-23T13:43:26.473Z,2.50
2018-05-23T13:45:54.964Z,3.10
2018-05-23T13:48:22.677Z,1.90
2018-05-23T13:50:50.428Z,2.60
2018-05-23T13:53:18.328Z,2.40
2018-05-23T13:55:46.089Z,2.43
2018-05-23T13:58:13.852Z,2.00
2018-05-23T14:00:41.647Z,2.07
2018-05-23T14:03:09.411Z,2.37
2018-05-23T14:05:37.220Z,2.07
2018-05-23T14:08:06.764Z,2.20
2018-05-23T14:10:35.287Z,2.00
2018-05-23T14:13:03.023Z,1.80
2018-05-23T14:15:31.517Z,3.57
2018-05-23T14:17:59.226Z,2.27
2018-05-23T14:20:26.962Z,2.10
2018-05-23T14:22:54.652Z,2.20
2018-05-23T14:25:22.520Z,2.40
2018-05-23T14:27:50.252Z,2.20
2018-05-23T14:30:17.970Z,2.10
2018-05-23T14:32:46.472Z,2.50
2018-05-23T14:35:14.175Z,2.90
2018-05-23T14:37:41.927Z,2.40
2018-05-23T14:40:09.762Z,1.70
2018-05-23T14:42:37.554Z,2.00
2018-05-23T14:45:05.345Z,2.17
2018-05-23T14:47:33.130Z,2.23
2018-05-23T14:50:01.695Z,1.93
2018-05-23T14:52:29.446Z,1.90
2018-05-23T14:54:57.192Z,2.17
2018-05-23T14:57:24.933Z,1.97
2018-05-23T14:59:52.716Z,2.10
2018-05-23T15:02:20.446Z,2.03
2018-05-23T15:04:48.196Z,2.90
2018-05-23T15:07:15.931Z,2.37
2018-05-23T15:09:43.665Z,2.13
2018-05-23T15:12:11.409Z,1.80
2018-05-23T15:14:39.115Z,2.40
2018-05-23T15:17:06.856Z,2.03
2018-05-23T15:19:34.557Z,2.70
2018-05-23T15:22:02.595Z,2.13
2018-05-23T15:24:30.313Z,2.17
2018-05-23T15:26:58.785Z,2.03
2018-05-23T15:29:26.521Z,2.60
2018-05-23T15:31:54.247Z,2.27
2018-05-23T15:34:21.952Z,2.00
2018-05-23T15:36:49.676Z,1.87
2018-05-23T15:39:17.376Z,2.10
2018-05-23T15:41:45.180Z,2.30
2018-05-23T15:44:12.877Z,2.00
2018-05-23T15:46:40.573Z,2.10
2018-05-23T15:49:08.280Z,2.57
2018-05-23T15:51:36.780Z,2.23
2018-05-23T15:54:04.499Z,2.50
2018-05-23T15:56:32.200Z,2.50
2018-05-23T15:58:59.925Z,2.20
2018-05-23T16:01:27.622Z,2.00
2018-05-23T16:03:55.349Z,2.37
2018-05-23T16:06:23.120Z,2.50
2018-05-23T16:08:51.643Z,2.67
2018-05-23T16:11:19.348Z,1.93
2018-05-23T16:13:47.135Z,2.33
2018-05-23T16:16:15.672Z,2.07
2018-05-23T16:18:43.375Z,1.80
2018-05-23T16:21:11.893Z,2.03
2018-05-23T16:23:40.355Z,2.30
2018-05-23T16:26:08.060Z,2.43
2018-05-23T16:28:35.838Z,2.47
2018-05-23T16:31:03.593Z,2.33
2018-05-23T16:33:31.286Z,2.03
2018-05-23T16:35:59.785Z,2.10
2018-05-23T16:38:27.480Z,2.10
2018-05-23T16:40:55.198Z,2.47
2018-05-23T16:43:23.713Z,2.83
2018-05-23T16:45:51.817Z,2.37
2018-05-23T16:48:19.552Z,2.30
2018-05-23T16:50:47.284Z,2.20
2018-05-23T16:53:15.792Z,2.77
2018-05-23T16:55:43.519Z,2.27
2018-05-23T16:58:11.981Z,2.37
2018-05-23T17:00:39.677Z,2.40
2018-05-23T17:03:08.160Z,2.63
2018-05-23T17:05:36.704Z,2.00
2018-05-23T17:08:04.486Z,2.20
2018-05-23T17:10:32.972Z,3.10
2018-05-23T17:13:01.436Z,2.10
2018-05-23T17:15:29.173Z,2.27
2018-05-23T17:17:56.901Z,1.87
2018-05-23T17:20:24.600Z,2.70
2018-05-23T17:22:52.305Z,2.40
2018-05-23T17:25:20.820Z,3.00
2018-05-23T17:27:48.524Z,2.30
2018-05-23T17:30:16.232Z,1.73
2018-05-23T17:32:43.972Z,3.00
2018-05-23T17:35:12.431Z,2.27
2018-05-23T17:37:40.138Z,2.27
2018-05-23T17:40:07.922Z,1.80
2018-05-23T17:42:35.731Z,2.27
2018-05-23T17:45:03.528Z,2.50
2018-05-23T17:47:31.266Z,1.80
2018-05-23T17:49:59.229Z,2.57
2018-05-23T17:52:26.928Z,2.57
2018-05-23T17:54:54.665Z,2.17
2018-05-23T17:57:23.151Z,1.90
2018-05-23T17:59:50.933Z,2.80
2018-05-23T18:02:18.700Z,2.33
2018-05-23T18:04:46.506Z,2.33
2018-05-23T18:07:15.363Z,2.30
2018-05-23T18:09:43.187Z,2.40
2018-05-23T18:12:10.933Z,2.03
2018-05-23T18:14:38.630Z,1.80
2018-05-23T18:17:07.128Z,2.90
2018-05-23T18:19:34.840Z,2.00
2018-05-23T18:22:02.539Z,1.80
2018-05-23T18:24:31.230Z,2.63
2018-05-23T18:26:58.981Z,2.17
2018-05-23T18:29:27.957Z,2.70
2018-05-23T18:31:56.430Z,2.10
2018-05-23T18:34:24.160Z,2.47
2018-05-23T18:36:51.977Z,2.40
2018-05-23T18:39:20.502Z,3.60
2018-05-23T18:41:48.249Z,2.37
2018-05-23T18:44:16.065Z,3.00
2018-05-23T18:46:43.852Z,3.20
2018-05-23T18:49:12.313Z,2.50
2018-05-23T18:51:40.040Z,2.23
2018-05-23T18:54:07.766Z,3.03
2018-05-23T18:56:36.316Z,3.30
2018-05-23T18:59:04.108Z,2.60
2018-05-23T19:01:32.611Z,3.40
2018-05-23T19:04:00.370Z,3.73
2018-05-23T19:06:28.092Z,2.73
2018-05-23T19:08:55.824Z,3.57
2018-05-23T19:11:23.751Z,2.23
2018-05-23T19:13:52.269Z,2.07
2018-05-23T19:16:20.184Z,2.97
2018-05-23T19:18:48.694Z,2.43
2018-05-23T19:21:16.406Z,6.80
2018-05-23T19:23:44.183Z,3.53
2018-05-23T19:26:11.901Z,25.33
2018-05-23T19:28:39.640Z,3.90
2018-05-23T19:31:08.161Z,2.83
2018-05-23T19:33:35.883Z,2.70
2018-05-23T19:36:04.393Z,2.13
2018-05-23T19:38:32.113Z,3.43
2018-05-23T19:40:59.876Z,3.77
2018-05-23T19:43:28.379Z,2.50
2018-05-23T19:45:56.874Z,2.67
2018-05-23T19:48:24.609Z,2.37
2018-05-23T19:50:53.105Z,3.70
2018-05-23T19:53:21.575Z,2.43
2018-05-23T19:55:51.220Z,4.50
2018-05-23T19:58:19.001Z,4.03
2018-05-23T20:00:46.785Z,3.00
2018-05-23T20:03:14.560Z,3.40
2018-05-23T20:05:42.267Z,2.90
2018-05-23T20:08:10.199Z,4.13
2018-05-23T20:10:38.704Z,4.00
2018-05-23T20:13:06.642Z,4.50
2018-05-23T20:15:34.441Z,3.53
2018-05-23T20:18:02.204Z,2.70
2018-05-23T20:20:29.987Z,2.80
2018-05-23T20:22:58.213Z,2.70
2018-05-23T20:25:25.973Z,2.63
2018-05-23T20:27:54.942Z,3.50
2018-05-23T20:30:22.711Z,3.60
2018-05-23T20:32:50.452Z,3.57
2018-05-23T20:35:18.335Z,3.33
2018-05-23T20:37:46.072Z,2.43
2018-05-23T20:40:14.586Z,2.40
2018-05-23T20:42:42.344Z,3.50
2018-05-23T20:45:10.080Z,3.07
2018-05-23T20:47:37.906Z,2.93
2018-05-23T20:50:05.572Z,2.90
2018-05-23T20:52:34.036Z,2.77
2018-05-23T20:55:01.780Z,2.27
2018-05-23T20:57:29.519Z,2.33
2018-05-23T20:59:57.225Z,2.43
2018-05-23T21:02:25.012Z,3.27
2018-05-23T21:04:53.532Z,2.80
2018-05-23T21:07:21.219Z,3.33
2018-05-23T21:09:48.949Z,3.60
2018-05-23T21:12:16.647Z,3.23
2018-05-23T21:14:44.462Z,5.13
2018-05-23T21:17:12.245Z,3.60
2018-05-23T21:19:40.025Z,4.23
2018-05-23T21:22:07.760Z,3.43
2018-05-23T21:24:35.571Z,2.70
2018-05-23T21:27:03.326Z,3.63
2018-05-23T21:29:31.063Z,4.07
2018-05-23T21:31:58.834Z,3.80
2018-05-23T21:34:26.548Z,3.63
2018-05-23T21:36:55.077Z,4.90
2018-05-23T21:39:22.793Z,4.27
2018-05-23T21:41:51.283Z,3.27
2018-05-23T21:44:19.772Z,4.23
2018-05-23T21:46:47.487Z,2.60
2018-05-23T21:49:15.291Z,3.33
2018-05-23T21:51:44.216Z,3.27
2018-05-23T21:54:12.014Z,3.90
2018-05-23T21:56:39.740Z,2.87
2018-05-23T21:59:07.444Z,3.50
2018-05-23T22:01:35.269Z,3.53
2018-05-23T22:04:02.993Z,2.57
2018-05-23T22:06:31.473Z,2.10
2018-05-23T22:08:59.984Z,3.30
2018-05-23T22:11:27.749Z,2.33
2018-05-23T22:13:55.497Z,2.37
2018-05-23T22:16:23.996Z,2.17
2018-05-23T22:18:51.741Z,2.00
2018-05-23T22:21:20.267Z,1.90
2018-05-23T22:23:48.209Z,2.37
2018-05-23T22:26:16.884Z,1.80
2018-05-23T22:28:45.621Z,2.07
2018-05-23T22:31:13.353Z,3.00
2018-05-23T22:33:41.049Z,3.07
2018-05-23T22:36:08.803Z,2.37
2018-05-23T22:38:36.500Z,1.87
2018-05-23T22:41:04.984Z,2.90
2018-05-23T22:43:33.561Z,2.50
2018-05-23T22:46:01.257Z,2.83
2018-05-23T22:48:29.016Z,2.27
2018-05-23T22:50:56.751Z,2.00
2018-05-23T22:53:25.279Z,1.87
2018-05-23T22:55:55.116Z,2.60
2018-05-23T22:58:22.860Z,2.30
2018-05-23T23:00:50.596Z,3.00
2018-05-23T23:03:18.307Z,2.17
2018-05-23T23:05:46.096Z,1.90
2018-05-23T23:08:13.855Z,2.27
2018-05-23T23:10:42.432Z,2.37
2018-05-23T23:13:10.981Z,2.33
2018-05-23T23:15:38.684Z,1.90
2018-05-23T23:18:07.160Z,2.27
2018-05-23T23:20:34.921Z,2.50
2018-05-23T23:23:02.627Z,2.20
2018-05-23T23:25:30.360Z,2.43
2018-05-23T23:27:58.857Z,2.20
2018-05-23T23:30:27.367Z,2.07
2018-05-23T23:32:55.112Z,2.47
2018-05-23T23:35:22.900Z,3.00
2018-05-23T23:37:50.686Z,2.50
2018-05-23T23:40:18.419Z,2.67
2018-05-23T23:42:46.236Z,2.00
2018-05-23T23:45:14.026Z,2.20
2018-05-23T23:47:42.548Z,2.00
2018-05-23T23:50:10.359Z,2.57
2018-05-23T23:52:38.887Z,2.40
2018-05-23T23:55:07.396Z,2.70
2018-05-23T23:57:35.169Z,2.00
